Time;durP1;ratioP1;P1;durP2;ratioP2;P2;SDS_P1;SDS_P2;PMS_P1;PMS_P2;Temp;Humidity;BMP_temperature;BMP_pressure;BME280_temperature;BME280_humidity;BME280_pressure;Samples;Min_cycle;Max_cycle;Signal;HPM_P1;HPM_P2
2022/04/30 00:04:48;;;;;;;;;;;8.80;1.00;;;;;;10205934;28;84893;-49
2022/04/30 00:09:48;;;;;;;;;;;8.70;1.00;;;;;;10215190;28;84899;-44
2022/04/30 00:14:49;;;;;;;;;;;8.60;1.00;;;;;;10239265;28;84278;-45
2022/04/30 00:19:50;;;;;;;;;;;8.50;1.00;;;;;;10245492;28;85115;-44
2022/04/30 00:24:50;;;;;;;;;;;8.50;1.00;;;;;;10244442;28;84003;-48
2022/04/30 00:29:52;;;;;;;;;;;8.50;1.00;;;;;;10245232;28;83991;-44
2022/04/30 00:34:52;;;;;;;;;;;8.50;1.00;;;;;;10243963;28;84908;-44
2022/04/30 00:39:53;;;;;;;;;;;8.40;1.00;;;;;;10244803;28;84238;-47
2022/04/30 00:44:53;;;;;;;;;;;8.30;1.00;;;;;;10243817;28;84922;-47
2022/04/30 00:49:54;;;;;;;;;;;8.30;1.00;;;;;;10244684;28;84135;-48
2022/04/30 00:54:59;;;;;;;;;;;8.30;1.00;;;;;;10217428;28;84156;-47
2022/04/30 01:00:00;;;;;;;;;;;8.20;1.00;;;;;;10210664;28;84129;-48
2022/04/30 01:05:01;;;;;;;;;;;8.20;1.00;;;;;;10211224;28;84226;-49
2022/04/30 01:10:01;;;;;;;;;;;8.10;1.00;;;;;;10212212;28;84385;-44
2022/04/30 01:15:06;;;;;;;;;;;8.10;1.00;;;;;;10211125;28;84000;-46
2022/04/30 01:20:07;;;;;;;;;;;8.00;1.00;;;;;;10210575;28;85303;-45
2022/04/30 01:25:08;;;;;;;;;;;8.00;1.00;;;;;;10210649;28;84277;-45
2022/04/30 01:30:10;;;;;;;;;;;8.10;1.00;;;;;;10210823;28;84094;-45
2022/04/30 01:40:15;;;;;;;;;;;7.90;1.00;;;;;;10164905;28;84231;-45
2022/04/30 01:45:18;;;;;;;;;;;7.80;1.00;;;;;;10134712;28;86033;-46
2022/04/30 01:50:18;;;;;;;;;;;7.80;1.00;;;;;;10167399;28;84014;-44
2022/04/30 01:55:19;;;;;;;;;;;7.70;1.00;;;;;;10166840;28;84929;-47
2022/04/30 02:00:22;;;;;;;;;;;7.70;1.00;;;;;;10148388;28;86672;-46
2022/04/30 02:05:23;;;;;;;;;;;7.70;1.00;;;;;;10166070;28;84214;-43
2022/04/30 02:10:24;;;;;;;;;;;7.70;1.00;;;;;;10166184;28;84950;-51
2022/04/30 02:15:25;;;;;;;;;;;7.70;1.00;;;;;;10165192;28;84995;-47
2022/04/30 02:20:28;;;;;;;;;;;7.60;1.00;;;;;;10166487;28;84853;-48
2022/04/30 02:25:29;;;;;;;;;;;7.60;1.00;;;;;;10164906;28;84796;-49
2022/04/30 02:30:31;;;;;;;;;;;7.70;1.00;;;;;;10165896;28;84254;-46
2022/04/30 02:35:34;;;;;;;;;;;7.70;1.00;;;;;;10160954;28;85399;-46
2022/04/30 02:40:35;;;;;;;;;;;7.60;1.00;;;;;;10163992;28;84284;-47
2022/04/30 02:45:37;;;;;;;;;;;7.60;1.00;;;;;;10143990;28;85015;-47
2022/04/30 02:50:38;;;;;;;;;;;7.50;10.00;;;;;;10160283;28;85050;-47
2022/04/30 02:55:38;;;;;;;;;;;7.60;7.00;;;;;;10148066;28;85190;-46
2022/04/30 03:00:43;;;;;;;;;;;7.60;4.80;;;;;;10165654;28;86130;-49
2022/04/30 03:06:19;;;;;;;;;;;7.40;25.20;;;;;;10163847;28;85423;-47
2022/04/30 03:11:19;;;;;;;;;;;7.50;15.10;;;;;;10166643;28;84893;-48
2022/04/30 03:21:42;;;;;;;;;;;7.40;25.00;;;;;;10163472;28;84801;-48
2022/04/30 03:26:43;;;;;;;;;;;7.30;27.10;;;;;;10157779;28;84845;-50
2022/04/30 03:31:44;;;;;;;;;;;7.30;45.30;;;;;;10154991;28;84818;-50
2022/04/30 03:36:44;;;;;;;;;;;7.20;49.00;;;;;;10163556;28;84384;-46
2022/04/30 03:41:45;;;;;;;;;;;7.20;57.50;;;;;;10162895;28;84123;-46
2022/04/30 03:46:46;;;;;;;;;;;7.10;72.90;;;;;;10144689;28;84951;-46
2022/04/30 03:51:47;;;;;;;;;;;7.00;99.90;;;;;;10165182;28;84122;-49
2022/04/30 03:56:47;;;;;;;;;;;6.90;99.90;;;;;;10164373;28;84736;-48
2022/04/30 04:01:48;;;;;;;;;;;6.90;99.90;;;;;;10165014;28;84919;-48
2022/04/30 04:06:48;;;;;;;;;;;6.90;99.90;;;;;;10163820;28;85081;-49
2022/04/30 04:11:49;;;;;;;;;;;6.90;99.90;;;;;;10164318;28;85301;-50
2022/04/30 04:17:50;;;;;;;;;;;6.90;99.90;;;;;;10146136;28;84697;-47
2022/04/30 04:22:20;;;;;;;;;;;6.90;99.90;;;;;;10155737;28;84829;-47
2022/04/30 04:27:20;;;;;;;;;;;6.80;99.90;;;;;;10132184;28;86192;-47
2022/04/30 04:32:21;;;;;;;;;;;6.80;99.90;;;;;;10133309;28;84075;-51
2022/04/30 04:37:21;;;;;;;;;;;6.70;99.90;;;;;;10156837;28;84242;-47
2022/04/30 04:42:22;;;;;;;;;;;6.70;99.90;;;;;;10131582;28;86824;-44
2022/04/30 04:47:23;;;;;;;;;;;6.80;99.90;;;;;;10168095;28;85526;-47
2022/04/30 04:52:23;;;;;;;;;;;6.90;99.90;;;;;;10169799;28;84957;-45
2022/04/30 04:57:24;;;;;;;;;;;7.00;99.90;;;;;;10168392;28;85200;-46
2022/04/30 05:02:25;;;;;;;;;;;6.90;99.90;;;;;;10167389;28;84947;-49
2022/04/30 05:07:25;;;;;;;;;;;7.00;99.90;;;;;;10149810;28;84725;-47
2022/04/30 05:12:26;;;;;;;;;;;7.10;99.90;;;;;;10168600;28;84279;-47
2022/04/30 05:17:26;;;;;;;;;;;7.20;99.90;;;;;;10167844;28;84267;-47
2022/04/30 05:22:27;;;;;;;;;;;7.20;99.90;;;;;;10167936;28;85386;-47
2022/04/30 05:27:28;;;;;;;;;;;7.30;99.90;;;;;;10167056;28;84661;-51
2022/04/30 05:32:28;;;;;;;;;;;7.50;99.90;;;;;;10168553;28;84814;-47
2022/04/30 05:37:29;;;;;;;;;;;7.80;78.50;;;;;;10165353;28;84861;-47
2022/04/30 05:42:29;;;;;;;;;;;8.00;30.80;;;;;;10150503;28;91822;-47
2022/04/30 05:47:30;;;;;;;;;;;8.10;8.90;;;;;;10126605;28;84197;-47
2022/04/30 05:52:31;;;;;;;;;;;8.20;11.60;;;;;;10129013;28;85693;-46
2022/04/30 05:57:32;;;;;;;;;;;8.40;1.00;;;;;;10129267;28;84437;-51
2022/04/30 06:02:32;;;;;;;;;;;8.60;1.00;;;;;;10112047;28;86711;-48
2022/04/30 06:07:33;;;;;;;;;;;8.50;1.00;;;;;;10127848;28;84877;-47
2022/04/30 06:12:34;;;;;;;;;;;8.70;1.00;;;;;;10112106;28;84065;-49
2022/04/30 06:17:35;;;;;;;;;;;9.00;1.00;;;;;;10149161;28;84325;-50
2022/04/30 06:22:36;;;;;;;;;;;9.30;1.00;;;;;;10134397;28;86000;-51
2022/04/30 06:27:37;;;;;;;;;;;9.40;1.00;;;;;;10168801;28;84373;-48
2022/04/30 06:32:37;;;;;;;;;;;9.60;1.00;;;;;;10137552;28;86906;-49
2022/04/30 06:37:38;;;;;;;;;;;9.90;1.00;;;;;;10154548;28;84595;-48
2022/04/30 06:42:40;;;;;;;;;;;10.00;1.00;;;;;;10164348;28;84989;-49
2022/04/30 06:47:40;;;;;;;;;;;10.10;1.00;;;;;;10142673;28;84323;-51
2022/04/30 06:58:01;;;;;;;;;;;10.30;1.00;;;;;;10156630;28;84255;-62
2022/04/30 07:03:07;;;;;;;;;;;10.80;1.00;;;;;;10162488;28;84613;-60
2022/04/30 07:08:08;;;;;;;;;;;11.20;1.00;;;;;;10160309;28;84927;-63
2022/04/30 07:13:08;;;;;;;;;;;11.50;1.00;;;;;;10163533;28;85078;-59
2022/04/30 07:18:09;;;;;;;;;;;11.40;1.00;;;;;;10147621;28;86461;-62
2022/04/30 07:23:10;;;;;;;;;;;11.90;1.00;;;;;;10161810;28;84155;-54
2022/04/30 07:28:10;;;;;;;;;;;12.90;1.00;;;;;;10159852;28;84545;-51
2022/04/30 07:33:11;;;;;;;;;;;13.50;99.90;;;;;;10161956;28;84518;-52
2022/04/30 07:38:11;;;;;;;;;;;12.90;99.90;;;;;;10123372;28;85977;-51
2022/04/30 07:43:12;;;;;;;;;;;12.50;99.90;;;;;;10120281;28;85092;-48
2022/04/30 07:48:12;;;;;;;;;;;12.00;99.90;;;;;;10157415;28;84860;-51
2022/04/30 07:53:17;;;;;;;;;;;11.70;1.00;;;;;;10161174;28;84888;-49
2022/04/30 07:58:17;;;;;;;;;;;11.60;1.00;;;;;;10160283;28;84113;-48
2022/04/30 08:03:18;;;;;;;;;;;12.10;1.00;;;;;;10161761;28;84620;-50
2022/04/30 08:08:18;;;;;;;;;;;13.00;1.00;;;;;;10229842;22;84270;-44
2022/04/30 08:13:19;;;;;;;;;;;14.10;1.00;;;;;;10286495;28;84130;-51
2022/04/30 08:18:20;;;;;;;;;;;14.60;1.00;;;;;;10285893;28;84932;-50
2022/04/30 08:23:22;;;;;;;;;;;15.40;1.00;;;;;;10286098;28;84932;-47
2022/04/30 08:28:23;;;;;;;;;;;16.30;99.90;;;;;;10283579;28;84327;-53
2022/04/30 08:33:24;;;;;;;;;;;17.70;56.30;;;;;;10270459;28;84221;-54
2022/04/30 08:38:24;;;;;;;;;;;18.30;1.00;;;;;;10284911;28;84989;-58
2022/04/30 08:43:26;;;;;;;;;;;17.40;1.00;;;;;;10268505;28;84872;-53
2022/04/30 08:48:27;;;;;;;;;;;16.40;1.00;;;;;;10283739;28;84258;-52
2022/04/30 08:53:29;;;;;;;;;;;16.40;1.00;;;;;;10286699;28;84112;-52
2022/04/30 08:58:29;;;;;;;;;;;15.60;1.00;;;;;;10284280;28;84022;-48
2022/04/30 09:03:34;;;;;;;;;;;14.40;99.90;;;;;;10285519;28;84113;-49
2022/04/30 09:08:35;;;;;;;;;;;14.40;13.10;;;;;;10283943;28;84962;-51
2022/04/30 09:13:43;;;;;;;;;;;14.20;1.00;;;;;;10291198;28;85058;-48
2022/04/30 09:18:44;;;;;;;;;;;15.40;1.00;;;;;;10289727;28;85050;-48
2022/04/30 09:23:45;;;;;;;;;;;17.00;17.40;;;;;;10272824;28;84978;-49
2022/04/30 09:28:46;;;;;;;;;;;16.90;1.00;;;;;;10288925;28;84284;-51
2022/04/30 09:33:54;;;;;;;;;;;16.30;1.00;;;;;;10291239;28;85219;-51
2022/04/30 09:38:55;;;;;;;;;;;16.40;1.00;;;;;;10293333;28;84866;-47
2022/04/30 09:44:09;;;;;;;;;;;17.60;99.90;;;;;;10266083;28;85026;-53
2022/04/30 09:54:30;;;;;;;;;;;19.60;99.90;;;;;;10290173;28;84764;-51
2022/04/30 09:59:33;;;;;;;;;;;20.90;99.90;;;;;;10285416;28;84909;-50
2022/04/30 10:04:35;;;;;;;;;;;21.00;99.90;;;;;;10304050;28;84901;-49
2022/04/30 10:09:37;;;;;;;;;;;20.70;1.00;;;;;;10270435;28;85751;-48
2022/04/30 10:14:47;;;;;;;;;;;21.50;78.10;;;;;;10287451;28;84669;-47
2022/04/30 10:20:06;;;;;;;;;;;21.30;1.00;;;;;;10273172;28;85027;-48
2022/04/30 10:25:08;;;;;;;;;;;21.00;1.00;;;;;;10290507;28;84891;-46
2022/04/30 10:30:27;;;;;;;;;;;21.10;1.00;;;;;;10285144;28;84493;-51
2022/04/30 10:35:29;;;;;;;;;;;19.80;1.00;;;;;;10286394;28;84219;-50
2022/04/30 10:40:36;;;;;;;;;;;20.90;1.00;;;;;;10290057;28;85300;-49
2022/04/30 10:45:37;;;;;;;;;;;21.00;1.00;;;;;;10290554;28;84184;-50
2022/04/30 10:50:38;;;;;;;;;;;21.80;1.00;;;;;;10290175;28;85167;-52
2022/04/30 10:55:40;;;;;;;;;;;21.90;1.00;;;;;;10285441;28;85008;-51
2022/04/30 11:00:40;;;;;;;;;;;22.50;1.00;;;;;;10296995;28;85142;-49
2022/04/30 11:05:42;;;;;;;;;;;23.10;1.00;;;;;;10284327;28;84467;-47
2022/04/30 11:10:52;;;;;;;;;;;22.90;1.00;;;;;;10284538;28;84935;-47
2022/04/30 11:15:57;;;;;;;;;;;21.70;1.00;;;;;;10283661;28;84224;-48
2022/04/30 11:20:59;;;;;;;;;;;22.80;1.00;;;;;;10313388;28;84271;-47
2022/04/30 11:26:00;;;;;;;;;;;23.10;1.00;;;;;;10276146;28;84979;-51
2022/04/30 11:31:00;;;;;;;;;;;23.10;1.00;;;;;;10286151;28;86124;-54
2022/04/30 11:36:01;;;;;;;;;;;22.70;1.00;;;;;;10285317;28;84096;-56
2022/04/30 11:41:10;;;;;;;;;;;22.40;1.00;;;;;;10281677;28;84756;-50
2022/04/30 11:46:11;;;;;;;;;;;20.80;1.00;;;;;;10284859;28;84943;-50
2022/04/30 11:51:11;;;;;;;;;;;20.30;1.00;;;;;;10295581;28;84941;-51
2022/04/30 11:56:12;;;;;;;;;;;20.90;1.00;;;;;;10283074;28;84789;-51
2022/04/30 12:01:22;;;;;;;;;;;20.80;1.00;;;;;;10267251;28;84708;-54
2022/04/30 12:06:24;;;;;;;;;;;22.20;1.00;;;;;;10269475;28;86886;-51
2022/04/30 12:11:25;;;;;;;;;;;23.50;1.00;;;;;;10286633;28;85007;-49
2022/04/30 12:16:32;;;;;;;;;;;23.00;99.90;;;;;;10284984;28;85229;-49
2022/04/30 12:27:04;;;;;;;;;;;21.70;99.90;;;;;;10285551;28;84228;-53
2022/04/30 12:32:07;;;;;;;;;;;20.70;99.90;;;;;;10285068;28;86056;-51
2022/04/30 12:37:08;;;;;;;;;;;19.60;99.90;;;;;;10284041;28;84171;-51
2022/04/30 12:42:11;;;;;;;;;;;19.60;99.90;;;;;;10284974;28;84099;-49
2022/04/30 12:47:11;;;;;;;;;;;20.90;99.90;;;;;;10286825;28;84647;-52
2022/04/30 12:52:12;;;;;;;;;;;22.60;99.90;;;;;;10291870;28;85716;-49
2022/04/30 12:57:13;;;;;;;;;;;22.60;99.90;;;;;;10289974;28;85099;-52
2022/04/30 13:02:14;;;;;;;;;;;22.30;99.90;;;;;;10291798;28;84967;-50
2022/04/30 13:07:14;;;;;;;;;;;23.30;99.90;;;;;;10287771;28;84952;-52
2022/04/30 13:17:42;;;;;;;;;;;23.40;99.90;;;;;;10265929;28;84989;-51
2022/04/30 13:22:42;;;;;;;;;;;24.60;99.90;;;;;;10291428;28;84256;-53
2022/04/30 13:27:43;;;;;;;;;;;24.30;99.90;;;;;;10290083;28;84609;-49
2022/04/30 13:32:44;;;;;;;;;;;23.30;99.90;;;;;;10290929;28;85083;-49
2022/04/30 13:37:45;;;;;;;;;;;22.60;99.90;;;;;;10289451;28;84117;-50
2022/04/30 13:42:46;;;;;;;;;;;22.70;99.90;;;;;;10290157;28;84801;-49
2022/04/30 13:47:49;;;;;;;;;;;21.70;99.90;;;;;;10271675;28;87260;-47
2022/04/30 13:52:50;;;;;;;;;;;21.20;99.90;;;;;;10290287;28;84004;-50
2022/04/30 13:57:50;;;;;;;;;;;20.40;99.90;;;;;;10287993;28;84287;-48
2022/04/30 14:02:51;;;;;;;;;;;20.50;99.90;;;;;;10289254;28;84048;-48
2022/04/30 14:07:51;;;;;;;;;;;20.30;99.90;;;;;;10288640;28;84277;-48
2022/04/30 14:12:52;;;;;;;;;;;20.10;63.30;;;;;;10288085;28;84445;-50
2022/04/30 14:23:12;;;;;;;;;;;18.70;75.50;;;;;;10288468;28;84091;-50
2022/04/30 14:28:13;;;;;;;;;;;18.20;87.20;;;;;;10288329;28;84391;-50
2022/04/30 14:33:13;;;;;;;;;;;18.00;90.10;;;;;;10271458;28;84138;-54
2022/04/30 14:38:15;;;;;;;;;;;17.80;46.30;;;;;;10288219;28;84942;-52
2022/04/30 14:43:15;;;;;;;;;;;17.70;69.90;;;;;;10271109;28;84351;-53
2022/04/30 14:48:16;;;;;;;;;;;18.10;30.40;;;;;;10270256;28;84114;-55
2022/04/30 14:53:16;;;;;;;;;;;18.00;5.00;;;;;;10272820;28;85199;-53
2022/04/30 14:58:17;;;;;;;;;;;17.70;1.00;;;;;;10288584;28;84057;-51
2022/04/30 15:03:17;;;;;;;;;;;17.40;1.00;;;;;;10268910;28;85564;-49
2022/04/30 15:08:18;;;;;;;;;;;17.20;1.00;;;;;;10285233;28;84880;-48
2022/04/30 15:13:19;;;;;;;;;;;17.30;1.00;;;;;;10269616;28;84921;-49
2022/04/30 15:18:19;;;;;;;;;;;16.90;1.00;;;;;;10286413;28;90975;-49
2022/04/30 15:23:20;;;;;;;;;;;16.40;1.00;;;;;;10286923;28;84962;-50
2022/04/30 15:28:21;;;;;;;;;;;16.40;1.00;;;;;;10267160;28;86071;-50
2022/04/30 15:33:21;;;;;;;;;;;16.30;1.00;;;;;;10285820;28;84110;-50
2022/04/30 15:38:22;;;;;;;;;;;16.40;1.00;;;;;;10284903;28;84977;-52
2022/04/30 15:43:22;;;;;;;;;;;16.50;1.00;;;;;;10252030;28;85862;-50
2022/04/30 15:53:51;;;;;;;;;;;16.60;1.00;;;;;;10285064;28;84275;-51
2022/04/30 15:58:56;;;;;;;;;;;16.50;1.00;;;;;;10267011;28;85849;-51
2022/04/30 16:03:56;;;;;;;;;;;16.60;1.00;;;;;;10284466;28;84497;-51
2022/04/30 16:08:57;;;;;;;;;;;16.60;1.00;;;;;;10284425;28;84766;-53
2022/04/30 16:13:57;;;;;;;;;;;16.40;1.00;;;;;;10285588;28;84089;-50
2022/04/30 16:19:01;;;;;;;;;;;16.40;1.00;;;;;;10292722;28;84329;-54
2022/04/30 16:24:02;;;;;;;;;;;16.50;1.00;;;;;;10296701;28;84898;-48
2022/04/30 16:29:08;;;;;;;;;;;16.40;1.00;;;;;;10286898;28;84848;-51
2022/04/30 16:34:10;;;;;;;;;;;16.20;1.00;;;;;;10289282;28;84254;-46
2022/04/30 16:39:10;;;;;;;;;;;16.10;1.00;;;;;;10272139;28;85875;-48
2022/04/30 16:44:11;;;;;;;;;;;16.00;1.00;;;;;;10291520;28;84802;-48
2022/04/30 16:49:11;;;;;;;;;;;15.90;7.90;;;;;;10282975;28;85098;-51
2022/04/30 16:54:12;;;;;;;;;;;15.70;26.20;;;;;;10289123;28;84454;-49
2022/04/30 16:59:12;;;;;;;;;;;15.50;99.90;;;;;;10287234;28;84290;-49
2022/04/30 17:04:14;;;;;;;;;;;15.40;1.00;;;;;;10288220;28;84962;-53
2022/04/30 17:09:14;;;;;;;;;;;15.10;99.90;;;;;;10271655;28;86998;-52
2022/04/30 17:14:15;;;;;;;;;;;14.90;1.00;;;;;;10291719;28;84130;-48
2022/04/30 17:19:15;;;;;;;;;;;14.90;1.00;;;;;;10290003;28;84192;-48
2022/04/30 17:24:16;;;;;;;;;;;14.60;43.20;;;;;;10289306;28;84918;-48
2022/04/30 17:29:17;;;;;;;;;;;14.60;1.00;;;;;;10288156;28;84297;-48
2022/04/30 17:39:37;;;;;;;;;;;14.30;1.00;;;;;;10288494;28;84259;-52
2022/04/30 17:44:38;;;;;;;;;;;14.40;1.00;;;;;;10273381;28;86114;-50
2022/04/30 17:49:39;;;;;;;;;;;14.40;1.00;;;;;;10287619;28;85408;-51
2022/04/30 17:54:39;;;;;;;;;;;14.20;1.00;;;;;;10276833;28;85103;-50
2022/04/30 17:59:40;;;;;;;;;;;14.10;99.90;;;;;;10269963;28;84970;-47
2022/04/30 18:04:41;;;;;;;;;;;14.00;1.00;;;;;;10287809;28;84819;-50
2022/04/30 18:09:42;;;;;;;;;;;13.80;1.00;;;;;;10268105;28;86076;-51
2022/04/30 18:14:44;;;;;;;;;;;13.80;29.10;;;;;;10287069;28;85667;-51
2022/04/30 18:19:46;;;;;;;;;;;13.70;99.90;;;;;;10285036;28;84225;-50
2022/04/30 18:24:46;;;;;;;;;;;13.70;99.90;;;;;;10288325;28;84913;-49
2022/04/30 18:29:47;;;;;;;;;;;13.60;1.00;;;;;;10286267;28;84387;-50
2022/04/30 18:34:48;;;;;;;;;;;13.40;1.00;;;;;;10288245;28;84232;-50
2022/04/30 18:39:53;;;;;;;;;;;13.50;16.60;;;;;;10288574;28;84930;-49
2022/04/30 18:44:54;;;;;;;;;;;13.50;99.90;;;;;;10296323;28;84789;-54
2022/04/30 18:49:55;;;;;;;;;;;13.50;99.90;;;;;;10289554;28;84219;-47
2022/04/30 19:05:36;;;;;;;;;;;13.30;1.00;;;;;;10285181;28;84307;-49
2022/04/30 19:10:37;;;;;;;;;;;13.30;1.00;;;;;;10284817;28;84902;-49
2022/04/30 19:15:38;;;;;;;;;;;13.30;1.00;;;;;;10284352;28;84880;-48
2022/04/30 19:20:44;;;;;;;;;;;13.20;1.00;;;;;;10284991;28;84062;-48
2022/04/30 19:25:44;;;;;;;;;;;13.10;1.00;;;;;;10281202;28;84897;-48
2022/04/30 19:30:45;;;;;;;;;;;13.10;1.00;;;;;;10284309;28;85299;-51
2022/04/30 19:35:45;;;;;;;;;;;13.00;1.00;;;;;;10285558;28;84906;-47
2022/04/30 19:40:46;;;;;;;;;;;13.10;1.00;;;;;;10284399;28;84927;-49
2022/04/30 19:45:46;;;;;;;;;;;13.00;1.00;;;;;;10263631;28;87118;-48
2022/04/30 19:50:47;;;;;;;;;;;12.90;1.00;;;;;;10266745;28;87035;-51
2022/04/30 19:55:47;;;;;;;;;;;12.80;1.00;;;;;;10282021;28;84284;-47
2022/04/30 20:00:48;;;;;;;;;;;12.90;1.00;;;;;;10280540;28;84259;-47
2022/04/30 20:05:49;;;;;;;;;;;12.70;1.00;;;;;;10281949;28;84884;-50
2022/04/30 20:21:28;;;;;;;;;;;12.70;78.60;;;;;;10270790;28;84891;-49
2022/04/30 20:26:30;;;;;;;;;;;12.70;99.90;;;;;;10272341;28;84899;-55
2022/04/30 20:36:50;;;;;;;;;;;12.70;99.90;;;;;;10244257;28;84946;-52
2022/04/30 20:41:50;;;;;;;;;;;12.60;99.90;;;;;;10246890;28;84146;-48
2022/04/30 20:46:51;;;;;;;;;;;12.50;99.90;;;;;;10243884;28;85357;-49
2022/04/30 20:51:52;;;;;;;;;;;12.50;99.90;;;;;;10245353;28;84167;-48
2022/04/30 20:56:52;;;;;;;;;;;12.50;99.90;;;;;;10243156;28;84760;-50
2022/04/30 21:01:54;;;;;;;;;;;12.50;99.90;;;;;;10244684;28;84896;-50
2022/04/30 21:06:54;;;;;;;;;;;12.50;99.90;;;;;;10245466;28;84752;-52
2022/04/30 21:11:55;;;;;;;;;;;12.50;99.90;;;;;;10249946;28;84070;-53
2022/04/30 21:16:55;;;;;;;;;;;12.40;99.90;;;;;;10247252;28;84880;-52
2022/04/30 21:21:56;;;;;;;;;;;12.30;99.90;;;;;;10249014;28;84848;-53
2022/04/30 21:26:59;;;;;;;;;;;12.30;99.90;;;;;;10248382;28;84937;-50
2022/04/30 21:32:00;;;;;;;;;;;12.30;99.90;;;;;;10231727;28;84147;-49
2022/04/30 21:37:00;;;;;;;;;;;12.30;99.90;;;;;;10247001;28;84129;-50
2022/04/30 21:42:01;;;;;;;;;;;12.20;99.90;;;;;;10248029;28;85055;-51
2022/04/30 21:47:02;;;;;;;;;;;12.20;99.90;;;;;;10246676;28;85007;-49
2022/04/30 21:52:02;;;;;;;;;;;12.20;99.90;;;;;;10248340;28;84070;-52
2022/04/30 22:02:27;;;;;;;;;;;12.10;99.90;;;;;;10209658;28;84210;-52
2022/04/30 22:07:27;;;;;;;;;;;12.20;99.90;;;;;;10190785;28;1098209;-48
2022/04/30 22:12:28;;;;;;;;;;;12.10;99.90;;;;;;10249495;28;84871;-53
2022/04/30 22:17:28;;;;;;;;;;;12.00;99.90;;;;;;10229884;28;87272;-53
2022/04/30 22:22:29;;;;;;;;;;;12.10;99.90;;;;;;10248554;28;84193;-52
2022/04/30 22:27:29;;;;;;;;;;;12.00;99.90;;;;;;10248092;28;85277;-53
2022/04/30 22:32:30;;;;;;;;;;;11.90;99.90;;;;;;10248256;28;84957;-49
2022/04/30 22:37:30;;;;;;;;;;;12.00;99.90;;;;;;10246605;28;84255;-52
2022/04/30 22:42:46;;;;;;;;;;;11.90;99.90;;;;;;10247858;28;85092;-49
2022/04/30 22:47:48;;;;;;;;;;;11.90;99.90;;;;;;10246582;28;84315;-49
2022/04/30 22:52:49;;;;;;;;;;;11.80;99.90;;;;;;10238010;28;84278;-51
2022/04/30 22:57:50;;;;;;;;;;;11.70;99.90;;;;;;10246626;28;84060;-52
2022/04/30 23:02:50;;;;;;;;;;;11.60;99.90;;;;;;10247418;28;84832;-53
2022/04/30 23:07:51;;;;;;;;;;;11.70;99.90;;;;;;10246722;28;84235;-55
2022/04/30 23:13:27;;;;;;;;;;;11.80;99.90;;;;;;10246858;28;84858;-53
2022/04/30 23:18:15;;;;;;;;;;;11.60;99.90;;;;;;10246477;28;84909;-57
2022/04/30 23:23:16;;;;;;;;;;;11.50;99.90;;;;;;10246724;28;85002;-53
2022/04/30 23:28:17;;;;;;;;;;;11.60;99.90;;;;;;10245925;28;86445;-50
2022/04/30 23:33:18;;;;;;;;;;;11.60;99.90;;;;;;10247475;28;85497;-54
2022/04/30 23:38:18;;;;;;;;;;;11.50;99.90;;;;;;10246212;28;84824;-54
2022/04/30 23:43:19;;;;;;;;;;;11.40;99.90;;;;;;10246781;28;84859;-50
2022/04/30 23:48:20;;;;;;;;;;;11.40;99.90;;;;;;10244942;28;84179;-51
2022/04/30 23:53:21;;;;;;;;;;;11.30;99.90;;;;;;10228203;28;84225;-49
2022/04/30 23:58:21;;;;;;;;;;;11.30;99.90;;;;;;10244557;28;84877;-50
